sensor_id;sensor_type;location;lat;lon;timestamp;pressure;altitude;pressure_sealevel;temperature;humidity
46448;BME280;32145;50.390;30.778;2024-03-23T00:55:54;99735.56;;;2.44;75.53
46448;BME280;32145;50.390;30.778;2024-03-23T00:58:50;99731.84;;;2.45;75.36
46448;BME280;32145;50.390;30.778;2024-03-23T01:01:44;99730.19;;;2.44;75.47
46448;BME280;32145;50.390;30.778;2024-03-23T01:04:39;99721.16;;;2.45;75.39
46448;BME280;32145;50.390;30.778;2024-03-23T01:07:33;99719.50;;;2.44;75.34
46448;BME280;32145;50.390;30.778;2024-03-23T01:10:29;99721.34;;;2.44;75.27
46448;BME280;32145;50.390;30.778;2024-03-23T01:13:23;99712.69;;;2.42;75.13
46448;BME280;32145;50.390;30.778;2024-03-23T01:16:18;99714.50;;;2.41;75.60
46448;BME280;32145;50.390;30.778;2024-03-23T01:19:12;99706.66;;;2.40;75.23
46448;BME280;32145;50.390;30.778;2024-03-23T01:22:06;99712.19;;;2.38;75.70
46448;BME280;32145;50.390;30.778;2024-03-23T01:25:00;99710.53;;;2.37;75.19
46448;BME280;32145;50.390;30.778;2024-03-23T01:27:56;99700.69;;;2.38;75.47
46448;BME280;32145;50.390;30.778;2024-03-23T01:30:50;99690.59;;;2.40;75.83
46448;BME280;32145;50.390;30.778;2024-03-23T01:33:45;99699.75;;;2.45;75.98
46448;BME280;32145;50.390;30.778;2024-03-23T01:36:39;99687.94;;;2.55;75.65
46448;BME280;32145;50.390;30.778;2024-03-23T01:39:33;99690.91;;;2.60;75.84
46448;BME280;32145;50.390;30.778;2024-03-23T01:42:28;99692.53;;;2.61;76.08
46448;BME280;32145;50.390;30.778;2024-03-23T01:45:24;99686.38;;;2.61;75.80
46448;BME280;32145;50.390;30.778;2024-03-23T01:48:19;99682.19;;;2.58;75.36
46448;BME280;32145;50.390;30.778;2024-03-23T01:51:14;99687.56;;;2.58;75.41
46448;BME280;32145;50.390;30.778;2024-03-23T01:54:09;99684.25;;;2.56;75.29
46448;BME280;32145;50.390;30.778;2024-03-23T01:57:04;99691.25;;;2.57;75.73
46448;BME280;32145;50.390;30.778;2024-03-23T01:59:58;99678.91;;;2.56;75.73
46448;BME280;32145;50.390;30.778;2024-03-23T02:02:54;99674.84;;;2.60;75.87
46448;BME280;32145;50.390;30.778;2024-03-23T02:05:48;99677.16;;;2.63;75.81
46448;BME280;32145;50.390;30.778;2024-03-23T02:08:43;99674.91;;;2.67;75.56
46448;BME280;32145;50.390;30.778;2024-03-23T02:11:38;99670.41;;;2.67;75.34
46448;BME280;32145;50.390;30.778;2024-03-23T02:14:32;99667.72;;;2.67;75.67
46448;BME280;32145;50.390;30.778;2024-03-23T02:17:27;99665.41;;;2.64;75.53
46448;BME280;32145;50.390;30.778;2024-03-23T02:20:23;99663.94;;;2.62;75.17
46448;BME280;32145;50.390;30.778;2024-03-23T02:23:18;99658.97;;;2.58;75.42
46448;BME280;32145;50.390;30.778;2024-03-23T02:26:13;99659.50;;;2.54;75.51
46448;BME280;32145;50.390;30.778;2024-03-23T02:29:07;99659.91;;;2.51;75.22
46448;BME280;32145;50.390;30.778;2024-03-23T02:32:02;99661.91;;;2.49;75.30
46448;BME280;32145;50.390;30.778;2024-03-23T02:34:56;99657.97;;;2.44;75.53
46448;BME280;32145;50.390;30.778;2024-03-23T02:37:50;99652.34;;;2.39;75.68
46448;BME280;32145;50.390;30.778;2024-03-23T02:40:48;99649.38;;;2.34;75.37
46448;BME280;32145;50.390;30.778;2024-03-23T02:43:44;99638.41;;;2.29;75.69
46448;BME280;32145;50.390;30.778;2024-03-23T02:46:41;99634.44;;;2.25;75.84
46448;BME280;32145;50.390;30.778;2024-03-23T02:49:37;99636.47;;;2.23;75.82
46448;BME280;32145;50.390;30.778;2024-03-23T02:52:33;99630.47;;;2.21;76.12
46448;BME280;32145;50.390;30.778;2024-03-23T02:55:30;99630.66;;;2.19;75.87
46448;BME280;32145;50.390;30.778;2024-03-23T02:58:27;99618.31;;;2.18;76.16
46448;BME280;32145;50.390;30.778;2024-03-23T03:01:24;99624.47;;;2.18;75.95
46448;BME280;32145;50.390;30.778;2024-03-23T03:04:20;99621.59;;;2.20;76.07
46448;BME280;32145;50.390;30.778;2024-03-23T03:07:16;99621.06;;;2.25;76.54
46448;BME280;32145;50.390;30.778;2024-03-23T03:10:13;99611.66;;;2.29;76.16
46448;BME280;32145;50.390;30.778;2024-03-23T03:13:09;99610.91;;;2.35;76.52
46448;BME280;32145;50.390;30.778;2024-03-23T03:16:09;99608.31;;;2.42;76.04
46448;BME280;32145;50.390;30.778;2024-03-23T03:19:06;99605.09;;;2.47;76.02
46448;BME280;32145;50.390;30.778;2024-03-23T03:22:02;99596.97;;;2.55;76.20
46448;BME280;32145;50.390;30.778;2024-03-23T03:24:58;99584.69;;;2.61;76.01
46448;BME280;32145;50.390;30.778;2024-03-23T03:27:54;99581.03;;;2.68;76.19
46448;BME280;32145;50.390;30.778;2024-03-23T03:30:50;99584.63;;;2.76;76.44
46448;BME280;32145;50.390;30.778;2024-03-23T03:33:50;99586.16;;;2.85;76.71
46448;BME280;32145;50.390;30.778;2024-03-23T03:36:46;99580.06;;;2.91;76.28
46448;BME280;32145;50.390;30.778;2024-03-23T03:39:42;99581.31;;;2.95;76.10
46448;BME280;32145;50.390;30.778;2024-03-23T03:42:37;99583.88;;;3.04;76.58
46448;BME280;32145;50.390;30.778;2024-03-23T03:45:31;99584.78;;;3.11;76.53
46448;BME280;32145;50.390;30.778;2024-03-23T03:48:28;99587.31;;;3.19;76.76
46448;BME280;32145;50.390;30.778;2024-03-23T03:51:26;99582.84;;;3.27;76.18
46448;BME280;32145;50.390;30.778;2024-03-23T03:54:22;99586.22;;;3.35;76.74
46448;BME280;32145;50.390;30.778;2024-03-23T03:57:16;99586.28;;;3.42;76.72
46448;BME280;32145;50.390;30.778;2024-03-23T04:00:12;99585.13;;;3.52;77.04
46448;BME280;32145;50.390;30.778;2024-03-23T04:03:06;99584.97;;;3.60;76.56
46448;BME280;32145;50.390;30.778;2024-03-23T04:06:00;99587.50;;;3.68;76.68
46448;BME280;32145;50.390;30.778;2024-03-23T04:08:58;99580.34;;;3.76;76.90
46448;BME280;32145;50.390;30.778;2024-03-23T04:11:54;99574.19;;;3.82;76.67
46448;BME280;32145;50.390;30.778;2024-03-23T04:14:50;99572.78;;;3.86;76.81
46448;BME280;32145;50.390;30.778;2024-03-23T04:17:47;99576.72;;;3.90;76.42
46448;BME280;32145;50.390;30.778;2024-03-23T04:20:43;99572.63;;;3.94;76.36
46448;BME280;32145;50.390;30.778;2024-03-23T04:23:39;99567.69;;;3.98;76.33
46448;BME280;32145;50.390;30.778;2024-03-23T04:26:42;99567.09;;;4.03;76.44
46448;BME280;32145;50.390;30.778;2024-03-23T04:29:38;99560.31;;;4.07;76.51
46448;BME280;32145;50.390;30.778;2024-03-23T04:32:34;99560.13;;;4.15;76.36
46448;BME280;32145;50.390;30.778;2024-03-23T04:35:30;99564.06;;;4.19;76.19
46448;BME280;32145;50.390;30.778;2024-03-23T04:38:28;99551.72;;;4.25;76.17
46448;BME280;32145;50.390;30.778;2024-03-23T04:41:25;99560.81;;;4.31;76.07
46448;BME280;32145;50.390;30.778;2024-03-23T04:44:23;99553.63;;;4.38;75.89
46448;BME280;32145;50.390;30.778;2024-03-23T04:47:19;99555.50;;;4.44;75.86
46448;BME280;32145;50.390;30.778;2024-03-23T04:50:16;99561.72;;;4.51;75.63
46448;BME280;32145;50.390;30.778;2024-03-23T04:53:12;99557.22;;;4.59;75.75
46448;BME280;32145;50.390;30.778;2024-03-23T04:56:06;99554.34;;;4.67;75.37
46448;BME280;32145;50.390;30.778;2024-03-23T04:59:00;99547.34;;;4.73;75.53
46448;BME280;32145;50.390;30.778;2024-03-23T05:01:56;99548.56;;;4.77;75.16
46448;BME280;32145;50.390;30.778;2024-03-23T05:04:51;99545.50;;;4.80;75.59
46448;BME280;32145;50.390;30.778;2024-03-23T05:07:47;99542.19;;;4.85;75.52
46448;BME280;32145;50.390;30.778;2024-03-23T05:10:43;99542.00;;;4.93;75.76
46448;BME280;32145;50.390;30.778;2024-03-23T05:13:40;99532.06;;;5.00;75.24
46448;BME280;32145;50.390;30.778;2024-03-23T05:16:36;99531.66;;;5.03;75.65
46448;BME280;32145;50.390;30.778;2024-03-23T05:19:34;99539.31;;;5.13;75.36
46448;BME280;32145;50.390;30.778;2024-03-23T05:22:30;99531.47;;;5.19;75.41
46448;BME280;32145;50.390;30.778;2024-03-23T05:25:27;99534.38;;;5.24;74.79
46448;BME280;32145;50.390;30.778;2024-03-23T05:28:23;99542.44;;;5.31;74.62
46448;BME280;32145;50.390;30.778;2024-03-23T05:31:25;99538.09;;;5.36;75.01
46448;BME280;32145;50.390;30.778;2024-03-23T05:34:22;99540.78;;;5.43;74.72
46448;BME280;32145;50.390;30.778;2024-03-23T05:37:19;99536.81;;;5.52;74.79
46448;BME280;32145;50.390;30.778;2024-03-23T05:40:15;99538.91;;;5.57;74.55
46448;BME280;32145;50.390;30.778;2024-03-23T05:43:11;99533.31;;;5.59;73.97
46448;BME280;32145;50.390;30.778;2024-03-23T05:46:08;99535.19;;;5.65;74.75
46448;BME280;32145;50.390;30.778;2024-03-23T05:49:04;99537.66;;;5.73;74.65
46448;BME280;32145;50.390;30.778;2024-03-23T05:52:01;99533.69;;;5.83;73.94
46448;BME280;32145;50.390;30.778;2024-03-23T05:54:58;99536.13;;;5.91;74.33
46448;BME280;32145;50.390;30.778;2024-03-23T05:57:55;99538.38;;;6.01;74.28
46448;BME280;32145;50.390;30.778;2024-03-23T06:00:57;99536.34;;;6.10;73.84
46448;BME280;32145;50.390;30.778;2024-03-23T06:03:53;99537.94;;;6.17;73.90
46448;BME280;32145;50.390;30.778;2024-03-23T06:06:48;99524.47;;;6.24;73.27
46448;BME280;32145;50.390;30.778;2024-03-23T06:09:42;99527.94;;;6.31;73.46
46448;BME280;32145;50.390;30.778;2024-03-23T06:12:38;99531.88;;;6.36;72.88
46448;BME280;32145;50.390;30.778;2024-03-23T06:15:32;99523.56;;;6.44;73.15
46448;BME280;32145;50.390;30.778;2024-03-23T06:18:26;99528.28;;;6.49;72.27
46448;BME280;32145;50.390;30.778;2024-03-23T06:21:20;99530.94;;;6.55;72.44
46448;BME280;32145;50.390;30.778;2024-03-23T06:24:15;99532.16;;;6.60;72.29
46448;BME280;32145;50.390;30.778;2024-03-23T06:27:09;99534.22;;;6.64;71.95
46448;BME280;32145;50.390;30.778;2024-03-23T06:30:06;99535.44;;;6.68;71.96
46448;BME280;32145;50.390;30.778;2024-03-23T06:33:01;99532.09;;;6.73;71.98
46448;BME280;32145;50.390;30.778;2024-03-23T06:35:55;99526.25;;;6.83;72.16
46448;BME280;32145;50.390;30.778;2024-03-23T06:38:49;99528.66;;;6.91;71.62
46448;BME280;32145;50.390;30.778;2024-03-23T06:41:51;99528.63;;;6.98;71.31
46448;BME280;32145;50.390;30.778;2024-03-23T06:44:46;99525.28;;;7.03;72.07
46448;BME280;32145;50.390;30.778;2024-03-23T06:47:42;99528.13;;;7.08;71.27
46448;BME280;32145;50.390;30.778;2024-03-23T06:50:36;99530.59;;;7.09;71.65
46448;BME280;32145;50.390;30.778;2024-03-23T06:53:30;99534.50;;;7.14;71.38
46448;BME280;32145;50.390;30.778;2024-03-23T06:56:24;99524.78;;;7.13;71.38
46448;BME280;32145;50.390;30.778;2024-03-23T06:59:19;99524.78;;;7.13;70.69
46448;BME280;32145;50.390;30.778;2024-03-23T07:02:13;99526.00;;;7.17;71.33
46448;BME280;32145;50.390;30.778;2024-03-23T07:05:09;99527.78;;;7.23;71.18
46448;BME280;32145;50.390;30.778;2024-03-23T07:08:03;99524.72;;;7.19;70.86
46448;BME280;32145;50.390;30.778;2024-03-23T07:10:58;99515.16;;;7.24;70.89
46448;BME280;32145;50.390;30.778;2024-03-23T07:13:53;99514.72;;;7.27;70.63
46448;BME280;32145;50.390;30.778;2024-03-23T07:16:47;99515.78;;;7.26;71.02
46448;BME280;32145;50.390;30.778;2024-03-23T07:19:41;99516.56;;;7.26;70.97
46448;BME280;32145;50.390;30.778;2024-03-23T07:22:37;99505.94;;;7.31;71.28
46448;BME280;32145;50.390;30.778;2024-03-23T07:25:32;99503.88;;;7.33;71.06
46448;BME280;32145;50.390;30.778;2024-03-23T07:28:26;99505.44;;;7.41;71.07
46448;BME280;32145;50.390;30.778;2024-03-23T07:31:21;99505.41;;;7.48;70.17
46448;BME280;32145;50.390;30.778;2024-03-23T07:34:15;99510.72;;;7.55;70.14
46448;BME280;32145;50.390;30.778;2024-03-23T07:37:09;99503.22;;;7.57;70.60
46448;BME280;32145;50.390;30.778;2024-03-23T07:40:07;99510.66;;;7.61;70.43
46448;BME280;32145;50.390;30.778;2024-03-23T07:43:01;99504.59;;;7.66;70.15
46448;BME280;32145;50.390;30.778;2024-03-23T07:45:55;99499.13;;;7.73;69.83
46448;BME280;32145;50.390;30.778;2024-03-23T07:48:49;99505.28;;;7.80;69.78
46448;BME280;32145;50.390;30.778;2024-03-23T07:51:43;99499.13;;;7.92;69.90
46448;BME280;32145;50.390;30.778;2024-03-23T07:54:38;99492.38;;;8.01;69.89
46448;BME280;32145;50.390;30.778;2024-03-23T07:57:33;99505.13;;;8.12;69.31
46448;BME280;32145;50.390;30.778;2024-03-23T08:00:28;99502.56;;;8.18;69.02
46448;BME280;32145;50.390;30.778;2024-03-23T08:03:22;99489.97;;;8.11;69.16
46448;BME280;32145;50.390;30.778;2024-03-23T08:06:20;99489.28;;;8.16;68.82
46448;BME280;32145;50.390;30.778;2024-03-23T08:09:16;99482.16;;;8.22;69.01
46448;BME280;32145;50.390;30.778;2024-03-23T08:12:12;99483.03;;;8.34;68.82
46448;BME280;32145;50.390;30.778;2024-03-23T08:15:10;99475.50;;;8.55;68.56
46448;BME280;32145;50.390;30.778;2024-03-23T08:18:06;99469.19;;;8.61;67.90
46448;BME280;32145;50.390;30.778;2024-03-23T08:21:04;99488.13;;;8.73;67.92
46448;BME280;32145;50.390;30.778;2024-03-23T08:24:01;99480.88;;;8.86;67.75
46448;BME280;32145;50.390;30.778;2024-03-23T08:26:57;99477.00;;;8.94;67.30
46448;BME280;32145;50.390;30.778;2024-03-23T08:29:53;99472.78;;;8.98;67.07
46448;BME280;32145;50.390;30.778;2024-03-23T08:32:51;99481.84;;;9.03;66.24
46448;BME280;32145;50.390;30.778;2024-03-23T08:35:53;99475.63;;;9.03;66.57
46448;BME280;32145;50.390;30.778;2024-03-23T08:38:50;99470.06;;;8.98;66.70
46448;BME280;32145;50.390;30.778;2024-03-23T08:41:46;99464.09;;;8.96;66.27
46448;BME280;32145;50.390;30.778;2024-03-23T08:44:42;99450.47;;;8.91;66.39
46448;BME280;32145;50.390;30.778;2024-03-23T08:47:39;99469.50;;;8.96;66.46
46448;BME280;32145;50.390;30.778;2024-03-23T08:50:37;99464.19;;;9.01;66.73
46448;BME280;32145;50.390;30.778;2024-03-23T08:53:34;99454.00;;;9.03;66.99
46448;BME280;32145;50.390;30.778;2024-03-23T08:56:28;99451.41;;;9.08;67.02
46448;BME280;32145;50.390;30.778;2024-03-23T08:59:22;99449.31;;;9.10;66.22
46448;BME280;32145;50.390;30.778;2024-03-23T09:02:19;99444.13;;;9.09;66.99
46448;BME280;32145;50.390;30.778;2024-03-23T09:05:15;99437.06;;;9.20;66.05
46448;BME280;32145;50.390;30.778;2024-03-23T09:08:11;99439.38;;;9.40;66.35
46448;BME280;32145;50.390;30.778;2024-03-23T09:11:06;99431.84;;;9.54;66.25
46448;BME280;32145;50.390;30.778;2024-03-23T09:14:01;99433.16;;;9.51;65.74
46448;BME280;32145;50.390;30.778;2024-03-23T09:16:55;99426.66;;;9.64;65.75
46448;BME280;32145;50.390;30.778;2024-03-23T09:19:49;99426.75;;;9.82;65.16
46448;BME280;32145;50.390;30.778;2024-03-23T09:22:43;99418.94;;;9.97;65.48
46448;BME280;32145;50.390;30.778;2024-03-23T09:25:40;99418.88;;;10.09;64.45
46448;BME280;32145;50.390;30.778;2024-03-23T09:28:34;99416.69;;;10.23;64.58
46448;BME280;32145;50.390;30.778;2024-03-23T09:31:29;99414.25;;;10.22;63.65
46448;BME280;32145;50.390;30.778;2024-03-23T09:34:23;99420.22;;;10.24;63.70
46448;BME280;32145;50.390;30.778;2024-03-23T09:37:17;99407.16;;;10.21;64.62
46448;BME280;32145;50.390;30.778;2024-03-23T09:40:12;99402.44;;;10.28;64.18
46448;BME280;32145;50.390;30.778;2024-03-23T09:43:07;99401.06;;;10.42;64.41
46448;BME280;32145;50.390;30.778;2024-03-23T09:46:02;99404.75;;;10.36;63.81
46448;BME280;32145;50.390;30.778;2024-03-23T09:48:57;99396.03;;;10.34;64.35
46448;BME280;32145;50.390;30.778;2024-03-23T09:51:51;99393.81;;;10.31;63.76
46448;BME280;32145;50.390;30.778;2024-03-23T09:54:46;99391.50;;;10.23;63.72
46448;BME280;32145;50.390;30.778;2024-03-23T09:57:40;99386.59;;;10.08;63.60
46448;BME280;32145;50.390;30.778;2024-03-23T10:00:35;99382.50;;;10.05;64.56
46448;BME280;32145;50.390;30.778;2024-03-23T10:03:30;99382.09;;;10.13;64.47
46448;BME280;32145;50.390;30.778;2024-03-23T10:06:24;99383.88;;;10.19;64.32
46448;BME280;32145;50.390;30.778;2024-03-23T10:09:19;99367.22;;;10.28;63.99
46448;BME280;32145;50.390;30.778;2024-03-23T10:12:16;99366.09;;;10.41;63.52
46448;BME280;32145;50.390;30.778;2024-03-23T10:15:17;99360.59;;;10.53;63.18
46448;BME280;32145;50.390;30.778;2024-03-23T10:18:18;99356.25;;;10.69;63.75
46448;BME280;32145;50.390;30.778;2024-03-23T10:21:15;99355.19;;;10.87;62.53
46448;BME280;32145;50.390;30.778;2024-03-23T10:24:12;99355.66;;;11.01;62.83
46448;BME280;32145;50.390;30.778;2024-03-23T10:27:07;99352.31;;;11.16;62.55
46448;BME280;32145;50.390;30.778;2024-03-23T10:30:08;99350.84;;;11.26;60.89
46448;BME280;32145;50.390;30.778;2024-03-23T10:33:06;99344.94;;;11.12;60.92
46448;BME280;32145;50.390;30.778;2024-03-23T10:36:06;99334.84;;;11.07;61.22
46448;BME280;32145;50.390;30.778;2024-03-23T10:39:05;99343.53;;;11.09;61.09
46448;BME280;32145;50.390;30.778;2024-03-23T10:42:05;99332.78;;;11.14;61.21
46448;BME280;32145;50.390;30.778;2024-03-23T10:45:04;99331.84;;;11.26;61.33
46448;BME280;32145;50.390;30.778;2024-03-23T10:47:59;99327.13;;;11.38;60.39
46448;BME280;32145;50.390;30.778;2024-03-23T10:50:47;99320.34;;;11.41;60.80
46448;BME280;32145;50.390;30.778;2024-03-23T10:53:43;99313.22;;;11.57;60.48
46448;BME280;32145;50.390;30.778;2024-03-23T10:56:39;99309.47;;;11.63;59.87
46448;BME280;32145;50.390;30.778;2024-03-23T10:59:35;99285.66;;;11.70;59.79
46448;BME280;32145;50.390;30.778;2024-03-23T11:02:32;99296.69;;;11.86;59.88
46448;BME280;32145;50.390;30.778;2024-03-23T11:05:29;99299.56;;;12.02;59.15
46448;BME280;32145;50.390;30.778;2024-03-23T11:08:33;99298.41;;;12.25;58.91
46448;BME280;32145;50.390;30.778;2024-03-23T11:11:29;99290.47;;;12.18;58.56
46448;BME280;32145;50.390;30.778;2024-03-23T11:14:24;99280.53;;;12.02;58.16
46448;BME280;32145;50.390;30.778;2024-03-23T11:17:21;99281.69;;;12.06;58.60
46448;BME280;32145;50.390;30.778;2024-03-23T11:20:31;99283.09;;;12.14;58.73
46448;BME280;32145;50.390;30.778;2024-03-23T11:23:28;99282.34;;;12.18;58.80
46448;BME280;32145;50.390;30.778;2024-03-23T11:26:24;99279.72;;;12.29;58.62
46448;BME280;32145;50.390;30.778;2024-03-23T11:29:22;99269.78;;;12.12;57.81
46448;BME280;32145;50.390;30.778;2024-03-23T11:32:18;99268.84;;;12.01;58.63
46448;BME280;32145;50.390;30.778;2024-03-23T11:35:27;99265.13;;;12.07;58.87
46448;BME280;32145;50.390;30.778;2024-03-23T11:38:24;99251.88;;;12.16;59.01
46448;BME280;32145;50.390;30.778;2024-03-23T11:41:20;99249.75;;;12.23;58.55
46448;BME280;32145;50.390;30.778;2024-03-23T11:44:18;99240.50;;;12.19;58.90
46448;BME280;32145;50.390;30.778;2024-03-23T11:47:13;99247.53;;;12.15;58.80
46448;BME280;32145;50.390;30.778;2024-03-23T11:50:08;99242.34;;;12.14;58.92
46448;BME280;32145;50.390;30.778;2024-03-23T11:53:14;99240.72;;;12.13;58.98
46448;BME280;32145;50.390;30.778;2024-03-23T11:56:09;99236.63;;;12.10;58.40
46448;BME280;32145;50.390;30.778;2024-03-23T11:59:03;99239.28;;;12.05;58.40
46448;BME280;32145;50.390;30.778;2024-03-23T12:01:57;99229.44;;;11.98;58.48
46448;BME280;32145;50.390;30.778;2024-03-23T12:04:53;99228.84;;;11.96;58.42
46448;BME280;32145;50.390;30.778;2024-03-23T12:07:47;99224.22;;;11.92;58.33
46448;BME280;32145;50.390;30.778;2024-03-23T12:10:44;99221.19;;;11.88;58.49
46448;BME280;32145;50.390;30.778;2024-03-23T12:13:39;99217.94;;;11.86;58.47
46448;BME280;32145;50.390;30.778;2024-03-23T12:16:33;99208.69;;;11.87;58.45
46448;BME280;32145;50.390;30.778;2024-03-23T12:19:27;99202.19;;;11.88;58.88
46448;BME280;32145;50.390;30.778;2024-03-23T12:22:23;99202.78;;;11.95;58.57
46448;BME280;32145;50.390;30.778;2024-03-23T12:25:18;99201.41;;;11.93;58.48
46448;BME280;32145;50.390;30.778;2024-03-23T12:28:12;99195.72;;;11.94;58.50
46448;BME280;32145;50.390;30.778;2024-03-23T12:31:10;99193.50;;;11.91;58.29
46448;BME280;32145;50.390;30.778;2024-03-23T12:34:04;99193.50;;;11.91;58.27
46448;BME280;32145;50.390;30.778;2024-03-23T12:37:01;99200.56;;;11.92;58.34
46448;BME280;32145;50.390;30.778;2024-03-23T12:39:58;99206.59;;;11.94;58.04
46448;BME280;32145;50.390;30.778;2024-03-23T12:42:53;99203.56;;;11.91;57.76
46448;BME280;32145;50.390;30.778;2024-03-23T12:45:47;99195.69;;;11.89;57.84
46448;BME280;32145;50.390;30.778;2024-03-23T12:48:44;99184.84;;;11.94;58.27
46448;BME280;32145;50.390;30.778;2024-03-23T12:51:38;99182.13;;;11.94;58.35
46448;BME280;32145;50.390;30.778;2024-03-23T12:54:32;99170.75;;;11.97;57.97
46448;BME280;32145;50.390;30.778;2024-03-23T12:57:28;99168.06;;;12.03;58.03
46448;BME280;32145;50.390;30.778;2024-03-23T13:00:22;99158.28;;;12.02;58.12
46448;BME280;32145;50.390;30.778;2024-03-23T13:03:16;99162.34;;;11.99;58.05
46448;BME280;32145;50.390;30.778;2024-03-23T13:06:11;99163.66;;;11.96;58.09
46448;BME280;32145;50.390;30.778;2024-03-23T13:09:05;99169.66;;;11.93;58.02
46448;BME280;32145;50.390;30.778;2024-03-23T13:12:01;99159.84;;;11.92;58.57
46448;BME280;32145;50.390;30.778;2024-03-23T13:14:59;99163.09;;;11.89;58.51
46448;BME280;32145;50.390;30.778;2024-03-23T13:17:55;99159.53;;;11.83;58.89
46448;BME280;32145;50.390;30.778;2024-03-23T13:20:52;99168.19;;;11.80;59.21
46448;BME280;32145;50.390;30.778;2024-03-23T13:23:48;99163.84;;;11.79;59.39
46448;BME280;32145;50.390;30.778;2024-03-23T13:26:44;99155.94;;;11.78;59.18
46448;BME280;32145;50.390;30.778;2024-03-23T13:29:41;99156.75;;;11.78;59.66
46448;BME280;32145;50.390;30.778;2024-03-23T13:32:39;99152.66;;;11.76;59.49
46448;BME280;32145;50.390;30.778;2024-03-23T13:35:35;99143.44;;;11.77;59.58
46448;BME280;32145;50.390;30.778;2024-03-23T13:38:31;99138.53;;;11.73;59.80
46448;BME280;32145;50.390;30.778;2024-03-23T13:41:27;99140.69;;;11.71;59.66
46448;BME280;32145;50.390;30.778;2024-03-23T13:44:22;99143.91;;;11.68;59.41
46448;BME280;32145;50.390;30.778;2024-03-23T13:47:16;99139.56;;;11.67;59.27
46448;BME280;32145;50.390;30.778;2024-03-23T13:50:12;99141.72;;;11.65;59.22
46448;BME280;32145;50.390;30.778;2024-03-23T13:53:06;99124.88;;;11.63;58.83
46448;BME280;32145;50.390;30.778;2024-03-23T13:56:00;99132.19;;;11.63;58.73
46448;BME280;32145;50.390;30.778;2024-03-23T13:58:55;99135.19;;;11.61;58.80
46448;BME280;32145;50.390;30.778;2024-03-23T14:01:50;99129.75;;;11.61;59.19
46448;BME280;32145;50.390;30.778;2024-03-23T14:04:44;99128.09;;;11.60;59.27
46448;BME280;32145;50.390;30.778;2024-03-23T14:07:40;99130.25;;;11.58;59.39
46448;BME280;32145;50.390;30.778;2024-03-23T14:10:35;99124.50;;;11.54;59.58
46448;BME280;32145;50.390;30.778;2024-03-23T14:13:30;99123.13;;;11.52;59.41
46448;BME280;32145;50.390;30.778;2024-03-23T14:16:24;99126.09;;;11.50;59.46
46448;BME280;32145;50.390;30.778;2024-03-23T14:19:18;99124.72;;;11.47;59.63
46448;BME280;32145;50.390;30.778;2024-03-23T14:22:13;99128.53;;;11.46;59.97
46448;BME280;32145;50.390;30.778;2024-03-23T14:25:08;99130.16;;;11.47;60.18
46448;BME280;32145;50.390;30.778;2024-03-23T14:28:03;99124.19;;;11.45;60.73
46448;BME280;32145;50.390;30.778;2024-03-23T14:30:58;99124.69;;;11.42;61.20
46448;BME280;32145;50.390;30.778;2024-03-23T14:33:52;99118.69;;;11.40;61.54
46448;BME280;32145;50.390;30.778;2024-03-23T14:36:46;99117.56;;;11.36;61.82
46448;BME280;32145;50.390;30.778;2024-03-23T14:39:41;99120.25;;;11.31;62.40
46448;BME280;32145;50.390;30.778;2024-03-23T14:42:36;99116.41;;;11.27;63.10
46448;BME280;32145;50.390;30.778;2024-03-23T14:45:30;99119.34;;;11.20;63.49
46448;BME280;32145;50.390;30.778;2024-03-23T14:48:25;99118.22;;;11.16;64.18
46448;BME280;32145;50.390;30.778;2024-03-23T14:51:19;99109.25;;;11.15;63.83
46448;BME280;32145;50.390;30.778;2024-03-23T14:54:13;99114.13;;;11.13;64.21
46448;BME280;32145;50.390;30.778;2024-03-23T14:57:07;99107.63;;;11.14;64.16
46448;BME280;32145;50.390;30.778;2024-03-23T15:00:04;99113.59;;;11.16;64.46
46448;BME280;32145;50.390;30.778;2024-03-23T15:02:59;99107.63;;;11.14;64.33
46448;BME280;32145;50.390;30.778;2024-03-23T15:05:54;99113.28;;;11.13;64.41
46448;BME280;32145;50.390;30.778;2024-03-23T15:08:48;99103.78;;;11.10;64.82
46448;BME280;32145;50.390;30.778;2024-03-23T15:11:42;99108.88;;;11.06;64.98
46448;BME280;32145;50.390;30.778;2024-03-23T15:14:37;99102.91;;;11.04;64.48
46448;BME280;32145;50.390;30.778;2024-03-23T15:17:34;99096.66;;;11.04;64.86
46448;BME280;32145;50.390;30.778;2024-03-23T15:20:30;99093.94;;;11.04;65.07
46448;BME280;32145;50.390;30.778;2024-03-23T15:23:27;99089.56;;;10.98;65.51
46448;BME280;32145;50.390;30.778;2024-03-23T15:26:23;99089.56;;;10.98;65.36
46448;BME280;32145;50.390;30.778;2024-03-23T15:29:20;99094.97;;;10.98;65.60
46448;BME280;32145;50.390;30.778;2024-03-23T15:32:17;99080.56;;;10.92;65.85
46448;BME280;32145;50.390;30.778;2024-03-23T15:35:15;99083.00;;;10.93;65.64
46448;BME280;32145;50.390;30.778;2024-03-23T15:38:11;99078.88;;;10.91;65.51
46448;BME280;32145;50.390;30.778;2024-03-23T15:41:07;99077.25;;;10.90;64.98
46448;BME280;32145;50.390;30.778;2024-03-23T15:44:04;99082.38;;;10.86;65.57
46448;BME280;32145;50.390;30.778;2024-03-23T15:47:00;99073.16;;;10.87;65.48
46448;BME280;32145;50.390;30.778;2024-03-23T15:49:57;99075.31;;;10.85;65.12
46448;BME280;32145;50.390;30.778;2024-03-23T15:52:54;99077.22;;;10.85;64.98
46448;BME280;32145;50.390;30.778;2024-03-23T15:55:53;99080.44;;;10.81;65.07
46448;BME280;32145;50.390;30.778;2024-03-23T15:58:49;99080.44;;;10.81;65.17
46448;BME280;32145;50.390;30.778;2024-03-23T16:01:46;99066.31;;;10.79;65.08
46448;BME280;32145;50.390;30.778;2024-03-23T16:04:42;99070.34;;;10.77;64.96
46448;BME280;32145;50.390;30.778;2024-03-23T16:07:38;99070.91;;;10.79;65.52
46448;BME280;32145;50.390;30.778;2024-03-23T16:10:34;99077.41;;;10.78;65.53
46448;BME280;32145;50.390;30.778;2024-03-23T16:13:29;99072.25;;;10.76;65.49
46448;BME280;32145;50.390;30.778;2024-03-23T16:16:23;99071.41;;;10.76;65.61
46448;BME280;32145;50.390;30.778;2024-03-23T16:19:17;99080.63;;;10.75;65.32